createdAt,value
2023-05-06T00:06:55.329Z,4
2023-05-06T00:22:18.630Z,3.7
2023-05-06T00:37:41.930Z,4.5
2023-05-06T00:53:05.222Z,4.1
2023-05-06T01:08:28.530Z,3.6
2023-05-06T01:23:51.811Z,4.4
2023-05-06T01:39:15.107Z,4.8
2023-05-06T01:54:38.402Z,4.5
2023-05-06T02:10:01.695Z,4.8
2023-05-06T02:25:25.000Z,4.8
2023-05-06T02:40:48.300Z,5.7
2023-05-06T02:56:11.589Z,5.5
2023-05-06T03:11:33.871Z,5.3
2023-05-06T03:26:57.119Z,6.1
2023-05-06T03:42:20.378Z,6.1
2023-05-06T03:57:43.622Z,5.7
2023-05-06T04:13:06.885Z,5.4
2023-05-06T04:28:30.127Z,5.7
2023-05-06T04:43:53.388Z,5.3
2023-05-06T04:59:16.641Z,6.4
2023-05-06T05:14:39.883Z,6.9
2023-05-06T05:30:03.137Z,6.7
2023-05-06T05:45:26.396Z,7.3
2023-05-06T06:00:49.652Z,10.3
2023-05-06T06:16:12.908Z,9
2023-05-06T06:31:35.166Z,9.1
2023-05-06T06:46:58.439Z,9.9
2023-05-06T07:02:21.675Z,9.6
2023-05-06T07:17:44.929Z,10
2023-05-06T07:33:08.000Z,9.2
2023-05-06T07:48:31.457Z,9.1
2023-05-06T08:03:54.719Z,8.9
2023-05-06T08:19:17.966Z,7.9
2023-05-06T08:20:41.376Z,9.2
2023-05-06T08:22:04.802Z,10.9
2023-05-06T08:23:28.204Z,11.2
2023-05-06T08:24:51.613Z,12.2
2023-05-06T08:26:15.027Z,12
2023-05-06T08:27:37.447Z,11.1
2023-05-06T08:29:00.859Z,11.3
2023-05-06T08:30:24.256Z,11.5
2023-05-06T08:31:47.673Z,11.6
2023-05-06T08:33:11.087Z,11.5
2023-05-06T08:34:34.474Z,11.3
2023-05-06T08:35:57.888Z,11.6
2023-05-06T08:37:21.294Z,11.2
2023-05-06T08:38:44.693Z,11.3
2023-05-06T08:40:08.119Z,11.2
2023-05-06T08:41:31.532Z,10.6
2023-05-06T08:42:54.932Z,10.7
2023-05-06T08:44:18.333Z,11.7
2023-05-06T08:45:40.769Z,10.4
2023-05-06T08:47:04.163Z,10.5
2023-05-06T08:48:27.580Z,10.4
2023-05-06T08:49:50.993Z,9.9
2023-05-06T08:51:14.386Z,10.1
2023-05-06T08:52:37.812Z,10.5
2023-05-06T08:54:01.214Z,9.8
2023-05-06T08:55:24.619Z,9.7
2023-05-06T08:56:48.026Z,10.3
2023-05-06T08:58:11.447Z,9.9
2023-05-06T08:59:34.848Z,10
2023-05-06T09:00:58.264Z,9.5
2023-05-06T09:02:21.672Z,9.1
2023-05-06T09:03:44.082Z,9.5
2023-05-06T09:05:07.490Z,9
2023-05-06T09:06:30.902Z,9.7
2023-05-06T09:07:54.298Z,9.6
2023-05-06T09:09:17.707Z,9.1
2023-05-06T09:10:41.129Z,8.6
2023-05-06T09:12:04.524Z,9.3
2023-05-06T09:13:27.945Z,8.6
2023-05-06T09:14:51.343Z,8.6
2023-05-06T09:16:14.765Z,8.4
2023-05-06T09:17:38.170Z,8.6
2023-05-06T09:19:01.567Z,7.9
2023-05-06T09:20:24.969Z,9
2023-05-06T09:21:47.405Z,8.6
2023-05-06T09:23:10.799Z,8.6
2023-05-06T09:24:34.226Z,9
2023-05-06T09:25:57.624Z,8.7
2023-05-06T09:27:21.036Z,8.6
2023-05-06T09:28:44.452Z,8
2023-05-06T09:30:07.841Z,8.4
2023-05-06T09:31:31.250Z,8.2
2023-05-06T09:32:54.667Z,8.4
2023-05-06T09:34:18.078Z,7.8
2023-05-06T09:35:41.484Z,8
2023-05-06T09:37:04.890Z,7.8
2023-05-06T09:38:28.294Z,7.7
2023-05-06T09:39:50.719Z,8.1
2023-05-06T09:41:14.124Z,8.6
2023-05-06T09:42:37.537Z,8.3
2023-05-06T09:44:00.943Z,8.1
2023-05-06T09:45:24.359Z,8.4
2023-05-06T09:46:47.753Z,8.3
2023-05-06T09:48:11.176Z,8.4
2023-05-06T09:49:34.575Z,8.2
2023-05-06T09:50:57.977Z,8.2
2023-05-06T09:52:21.382Z,8
2023-05-06T09:53:44.800Z,7.6
2023-05-06T09:55:08.212Z,7.1
2023-05-06T09:56:31.613Z,6.7
2023-05-06T09:57:54.035Z,7.4
2023-05-06T09:59:17.440Z,6.7
2023-05-06T10:00:40.856Z,6.9
2023-05-06T10:02:04.273Z,7.1
2023-05-06T10:03:27.672Z,6.6
2023-05-06T10:04:51.075Z,7.4
2023-05-06T10:06:14.483Z,7.3
2023-05-06T10:07:37.902Z,6.8
2023-05-06T10:09:01.300Z,7.2
2023-05-06T10:10:24.719Z,7.1
2023-05-06T10:11:48.132Z,7.4
2023-05-06T10:13:11.543Z,7
2023-05-06T10:14:34.939Z,6.5
2023-05-06T10:15:57.377Z,7
2023-05-06T10:17:20.771Z,6.8
2023-05-06T10:18:44.195Z,7.3
2023-05-06T10:20:07.602Z,6.7
2023-05-06T10:21:31.015Z,6.6
2023-05-06T10:22:54.406Z,6.6
2023-05-06T10:24:17.816Z,6.5
2023-05-06T10:25:41.228Z,7
2023-05-06T10:27:04.632Z,6.9
2023-05-06T10:28:28.038Z,6.6
2023-05-06T10:29:51.467Z,7
2023-05-06T10:31:14.000Z,6.8
2023-05-06T10:32:38.283Z,7.1
2023-05-06T10:34:00.707Z,6.4
2023-05-06T10:35:24.108Z,6.6
2023-05-06T10:36:47.525Z,6.9
2023-05-06T10:38:10.938Z,6.7
2023-05-06T10:39:34.332Z,7.1
2023-05-06T10:40:57.754Z,6.5
2023-05-06T10:42:21.158Z,6.4
2023-05-06T10:43:44.572Z,6.4
2023-05-06T10:45:07.968Z,6.4
2023-05-06T10:46:31.390Z,6.4
2023-05-06T10:47:54.798Z,6.6
2023-05-06T10:49:18.205Z,6.9
2023-05-06T10:50:41.607Z,6.6
2023-05-06T10:52:04.031Z,6.4
2023-05-06T10:53:27.431Z,6.7
2023-05-06T10:54:50.848Z,6.4
2023-05-06T10:56:14.254Z,6.4
2023-05-06T10:57:37.660Z,6.2
2023-05-06T10:59:01.074Z,6.7
2023-05-06T11:00:23.509Z,6.1
2023-05-06T11:01:46.915Z,6.2
2023-05-06T11:03:10.319Z,5.9
2023-05-06T11:04:33.720Z,5.8
2023-05-06T11:05:57.129Z,5.4
2023-05-06T11:07:20.536Z,5.5
2023-05-06T11:08:43.950Z,5.1
2023-05-06T11:10:07.366Z,5.7
2023-05-06T11:11:30.777Z,5.7
2023-05-06T11:12:54.176Z,5
2023-05-06T11:14:17.577Z,4.7
2023-05-06T11:15:40.991Z,4.5
2023-05-06T11:17:04.407Z,5.4
2023-05-06T11:18:26.814Z,3.9
2023-05-06T11:19:50.231Z,3.8
2023-05-06T11:21:13.649Z,3.6
2023-05-06T11:22:37.043Z,3.6
2023-05-06T11:24:00.462Z,3.8
2023-05-06T11:25:23.874Z,3.5
2023-05-06T11:26:47.283Z,3.3
2023-05-06T11:28:10.685Z,3.1
2023-05-06T11:29:34.084Z,3.4
2023-05-06T11:30:57.509Z,3.1
2023-05-06T11:32:20.914Z,3.5
2023-05-06T11:33:44.303Z,3.2
2023-05-06T11:35:07.726Z,3.4
2023-05-06T11:36:30.146Z,3.2
2023-05-06T11:37:53.556Z,3.5
2023-05-06T11:39:16.953Z,3.8
2023-05-06T11:40:40.373Z,3.9
2023-05-06T11:42:03.769Z,3.9
2023-05-06T11:43:27.176Z,4.3
2023-05-06T11:44:50.581Z,5
2023-05-06T11:46:14.001Z,4.7
2023-05-06T11:47:37.411Z,4.4
2023-05-06T11:49:00.812Z,4.4
2023-05-06T11:50:24.238Z,4.5
2023-05-06T11:51:47.648Z,5
2023-05-06T11:53:11.052Z,4.7
2023-05-06T11:54:33.479Z,4.3
2023-05-06T11:55:56.899Z,4.2
2023-05-06T11:57:20.289Z,4.7
2023-05-06T11:58:43.695Z,4.9
2023-05-06T12:00:07.116Z,5.4
2023-05-06T12:01:30.518Z,5.7
2023-05-06T12:02:53.918Z,6.3
2023-05-06T12:04:17.329Z,5.3
2023-05-06T12:05:40.756Z,5.7
2023-05-06T12:07:04.155Z,6.1
2023-05-06T12:08:27.569Z,6
2023-05-06T12:09:50.978Z,5.6
2023-05-06T12:11:14.375Z,5.8
2023-05-06T12:12:36.800Z,6.1
2023-05-06T12:14:00.214Z,5.9
2023-05-06T12:15:23.624Z,5.8
2023-05-06T12:16:47.036Z,6.5
2023-05-06T12:18:10.443Z,6.1
2023-05-06T12:19:33.853Z,6.6
2023-05-06T12:20:57.248Z,5.9
2023-05-06T12:22:20.669Z,5.9
2023-05-06T12:23:44.080Z,5.3
2023-05-06T12:25:07.492Z,5.8
2023-05-06T12:26:30.886Z,6.2
2023-05-06T12:27:54.310Z,5.8
2023-05-06T12:29:17.714Z,5.8
2023-05-06T12:30:40.139Z,5.8
2023-05-06T12:32:03.546Z,5.6
2023-05-06T12:33:26.947Z,5
2023-05-06T12:34:50.346Z,5.5
2023-05-06T12:36:13.770Z,5.3
2023-05-06T12:37:37.166Z,5.8
2023-05-06T12:39:00.576Z,5.8
2023-05-06T12:40:23.989Z,5
2023-05-06T12:41:47.391Z,5
2023-05-06T12:43:10.801Z,5.8
2023-05-06T12:44:34.216Z,5.3
2023-05-06T12:45:57.628Z,5.1
2023-05-06T12:47:21.030Z,5.4
2023-05-06T12:48:43.447Z,5.3
2023-05-06T12:50:06.851Z,5.4
2023-05-06T12:51:30.276Z,5.3
2023-05-06T12:52:53.671Z,5.4
2023-05-06T12:54:17.088Z,5.9
2023-05-06T12:55:40.495Z,5.2
2023-05-06T12:57:03.904Z,6.1
2023-05-06T12:58:27.299Z,5.7
2023-05-06T12:59:50.706Z,5.6
2023-05-06T13:01:14.114Z,5.2
2023-05-06T13:02:37.522Z,5.5
2023-05-06T13:04:00.928Z,5.2
2023-05-06T13:05:24.342Z,5
2023-05-06T13:06:46.767Z,5.2
2023-05-06T13:08:10.168Z,5
2023-05-06T13:09:33.581Z,5.2
2023-05-06T13:10:56.990Z,5
2023-05-06T13:12:20.404Z,5.5
2023-05-06T13:13:43.810Z,6
2023-05-06T13:15:07.224Z,5.7
2023-05-06T13:16:30.623Z,5.1
2023-05-06T13:17:54.043Z,4.9
2023-05-06T13:19:17.448Z,5.4
2023-05-06T13:20:40.854Z,5.5
2023-05-06T13:22:04.000Z,5.3
2023-05-06T13:23:27.675Z,5.2
2023-05-06T13:24:50.102Z,4.9
2023-05-06T13:26:13.503Z,5
2023-05-06T13:27:36.916Z,4.6
2023-05-06T13:29:00.323Z,4.6
2023-05-06T13:30:23.738Z,4.5
2023-05-06T13:31:47.158Z,4.8
2023-05-06T13:33:10.553Z,4.6
2023-05-06T13:34:33.972Z,4.6
2023-05-06T13:35:57.366Z,4.5
2023-05-06T13:37:20.770Z,4.8
2023-05-06T13:38:44.200Z,4.6
2023-05-06T13:40:07.597Z,4.9
2023-05-06T13:41:30.999Z,4.1
2023-05-06T13:42:53.433Z,4.6
2023-05-06T13:44:16.840Z,4.8
2023-05-06T13:45:40.242Z,4.8
2023-05-06T13:47:03.667Z,4.9
2023-05-06T13:48:27.074Z,4.4
2023-05-06T13:49:50.483Z,5
2023-05-06T13:51:13.889Z,5.2
2023-05-06T13:52:37.288Z,4.9
2023-05-06T13:54:00.709Z,5.1
2023-05-06T13:55:24.103Z,5.3
2023-05-06T13:56:47.528Z,4.9
2023-05-06T13:58:10.921Z,5
2023-05-06T13:59:34.348Z,5.5
2023-05-06T14:00:56.771Z,5.5
2023-05-06T14:02:20.175Z,5.1
2023-05-06T14:03:43.589Z,5.4
2023-05-06T14:05:07.004Z,5.2
2023-05-06T14:06:30.416Z,5
2023-05-06T14:07:53.814Z,5.5
2023-05-06T14:09:17.247Z,5.1
2023-05-06T14:10:40.657Z,5.4
2023-05-06T14:12:04.063Z,5
2023-05-06T14:13:27.462Z,4.9
2023-05-06T14:14:50.879Z,5.6
2023-05-06T14:16:14.284Z,5.2
2023-05-06T14:17:37.696Z,5.3
2023-05-06T14:19:00.123Z,5.2
2023-05-06T14:20:23.539Z,5.4
2023-05-06T14:21:46.941Z,5.2
2023-05-06T14:23:10.343Z,5.7
2023-05-06T14:24:33.758Z,5.7
2023-05-06T14:25:57.155Z,5
2023-05-06T14:27:20.575Z,5.2
2023-05-06T14:28:43.971Z,5.5
2023-05-06T14:30:07.387Z,6.3
2023-05-06T14:31:30.797Z,5.6
2023-05-06T14:32:54.208Z,5.8
2023-05-06T14:34:17.616Z,5.5
2023-05-06T14:35:41.028Z,5.5
2023-05-06T14:37:03.448Z,5.9
2023-05-06T14:38:26.857Z,5.6
2023-05-06T14:39:50.273Z,5.6
2023-05-06T14:41:13.693Z,5.7
2023-05-06T14:42:37.097Z,5.4
2023-05-06T14:44:00.494Z,5.2
2023-05-06T14:45:23.893Z,5.2
2023-05-06T14:46:47.310Z,5.1
2023-05-06T14:48:10.712Z,5.5
2023-05-06T14:49:34.133Z,5.5
2023-05-06T14:50:57.543Z,5.3
2023-05-06T14:52:20.949Z,5.4
2023-05-06T14:53:44.347Z,5.4
2023-05-06T14:55:06.784Z,5
2023-05-06T14:56:30.197Z,5.6
2023-05-06T14:57:53.589Z,5.2
2023-05-06T14:59:17.011Z,5.9
2023-05-06T15:00:40.421Z,5.1
2023-05-06T15:02:03.823Z,5.7
2023-05-06T15:03:27.238Z,5.8
2023-05-06T15:04:50.632Z,5.9
2023-05-06T15:06:14.054Z,5.8
2023-05-06T15:07:37.449Z,5.8
2023-05-06T15:09:00.857Z,5.8
2023-05-06T15:10:24.267Z,5.1
2023-05-06T15:11:47.682Z,6.1
2023-05-06T15:13:10.110Z,5.9
2023-05-06T15:14:33.511Z,5.9
2023-05-06T15:15:56.916Z,6.1
2023-05-06T15:17:20.337Z,5.7
2023-05-06T15:18:43.748Z,6
2023-05-06T15:20:07.146Z,5.4
2023-05-06T15:21:30.559Z,5.4
2023-05-06T15:22:53.970Z,5.5
2023-05-06T15:24:17.387Z,5.9
2023-05-06T15:25:40.786Z,6.3
2023-05-06T15:27:04.193Z,6.8
2023-05-06T15:28:27.597Z,7.5
2023-05-06T15:29:51.018Z,6.6
2023-05-06T15:31:13.430Z,6.8
2023-05-06T15:32:36.836Z,7.1
2023-05-06T15:34:00.253Z,6.5
2023-05-06T15:35:23.645Z,6.6
2023-05-06T15:38:10.456Z,7
2023-05-06T15:39:32.897Z,7.1
2023-05-06T15:40:56.310Z,6.6
2023-05-06T15:42:19.712Z,6.4
2023-05-06T15:43:43.115Z,6.8
2023-05-06T15:45:06.532Z,6.9
2023-05-06T15:46:29.945Z,7.5
2023-05-06T15:47:53.342Z,8.1
2023-05-06T15:49:16.765Z,7.5
2023-05-06T15:50:40.168Z,8.6
2023-05-06T15:52:03.582Z,8.1
2023-05-06T15:53:26.992Z,8
2023-05-06T15:54:50.397Z,8.7
2023-05-06T15:56:13.791Z,8.4
2023-05-06T15:57:36.214Z,8.7
2023-05-06T15:58:59.633Z,8.9
2023-05-06T16:00:23.027Z,8.7
2023-05-06T16:01:46.454Z,8.3
2023-05-06T16:03:09.852Z,9.1
2023-05-06T16:04:33.256Z,9.6
2023-05-06T16:05:56.676Z,9.1
2023-05-06T16:07:20.086Z,9.6
2023-05-06T16:08:43.493Z,10.3
2023-05-06T16:10:06.906Z,9.6
2023-05-06T16:11:30.294Z,9.4
2023-05-06T16:12:53.719Z,9.5
2023-05-06T16:14:17.114Z,9.5
2023-05-06T16:15:39.544Z,9.5
2023-05-06T16:17:02.945Z,9.7
2023-05-06T16:18:26.354Z,9.8
2023-05-06T16:19:49.763Z,9.5
2023-05-06T16:21:13.169Z,9.6
2023-05-06T16:22:36.597Z,9.4
2023-05-06T16:23:59.987Z,9.5
2023-05-06T16:25:23.400Z,9.7
2023-05-06T16:26:46.804Z,10
2023-05-06T16:28:10.216Z,10.4
2023-05-06T16:29:33.614Z,10.1
2023-05-06T16:30:57.038Z,9.8
2023-05-06T16:32:20.444Z,10.5
2023-05-06T16:33:42.857Z,9.9
2023-05-06T16:35:06.274Z,10
2023-05-06T16:36:29.689Z,9.6
2023-05-06T16:37:53.082Z,9.7
2023-05-06T16:39:16.498Z,10.1
2023-05-06T16:40:39.920Z,9.8
2023-05-06T16:42:03.314Z,9.7
2023-05-06T16:43:26.735Z,10.5
2023-05-06T16:44:50.134Z,10.6
2023-05-06T16:46:13.539Z,10.5
2023-05-06T16:47:36.955Z,10.3
2023-05-06T16:49:00.349Z,9.9
2023-05-06T16:50:23.760Z,10.1
2023-05-06T16:51:46.178Z,10.1
2023-05-06T16:53:09.603Z,9.8
2023-05-06T16:54:33.007Z,9.6
2023-05-06T16:55:56.419Z,10.3
2023-05-06T16:57:19.817Z,9.5
2023-05-06T16:58:43.222Z,9.2
2023-05-06T17:00:06.635Z,10.2
2023-05-06T17:01:30.038Z,10
2023-05-06T17:02:53.462Z,9.8
2023-05-06T17:04:16.860Z,9.4
2023-05-06T17:05:40.277Z,9.5
2023-05-06T17:07:03.682Z,9.3
2023-05-06T17:08:27.098Z,9.5
2023-05-06T17:09:49.521Z,9.3
2023-05-06T17:11:12.923Z,10
2023-05-06T17:12:36.323Z,9.6
2023-05-06T17:13:59.734Z,10.3
2023-05-06T17:16:46.562Z,9
2023-05-06T17:18:09.970Z,9.9
2023-05-06T17:19:33.373Z,9.5
2023-05-06T17:20:56.783Z,8.8
2023-05-06T17:22:20.185Z,9.8
2023-05-06T17:23:43.605Z,9
2023-05-06T17:25:06.997Z,10
2023-05-06T17:26:30.403Z,9.9
2023-05-06T17:27:52.839Z,9.7
2023-05-06T17:29:16.241Z,9.8
2023-05-06T17:30:39.654Z,9.6
2023-05-06T17:32:03.064Z,10.2
2023-05-06T17:33:26.477Z,10
2023-05-06T17:34:49.882Z,9.4
2023-05-06T17:36:13.295Z,9.3
2023-05-06T17:37:36.686Z,9.8
2023-05-06T17:39:00.107Z,9.8
2023-05-06T17:40:23.518Z,10.3
2023-05-06T17:41:46.920Z,10.7
2023-05-06T17:43:10.335Z,10.3
2023-05-06T17:44:33.740Z,10.2
2023-05-06T17:45:56.167Z,10.5
2023-05-06T17:47:19.561Z,10.5
2023-05-06T17:48:42.978Z,10.7
2023-05-06T17:50:06.386Z,11
2023-05-06T17:51:29.790Z,10.2
2023-05-06T17:54:16.607Z,10.6
2023-05-06T17:55:40.010Z,10.1
2023-05-06T17:57:03.418Z,9.6
2023-05-06T17:58:26.816Z,9.8
2023-05-06T17:59:50.231Z,10.1
2023-05-06T18:01:13.638Z,9.3
2023-05-06T18:02:37.043Z,9.6
2023-05-06T18:03:59.469Z,9.2
2023-05-06T18:05:22.881Z,9.2
2023-05-06T18:06:46.304Z,9.6
2023-05-06T18:08:09.706Z,9.3
2023-05-06T18:09:33.112Z,9.4
2023-05-06T18:10:56.519Z,9.1
2023-05-06T18:12:19.933Z,8.9
2023-05-06T18:13:43.354Z,8.9
2023-05-06T18:15:06.755Z,9.4
2023-05-06T18:16:30.168Z,9.4
2023-05-06T18:17:53.563Z,9.3
2023-05-06T18:19:16.968Z,9.2
2023-05-06T18:20:40.383Z,9
2023-05-06T18:22:02.802Z,9
2023-05-06T18:23:26.219Z,9.5
2023-05-06T18:24:49.627Z,9.3
2023-05-06T18:26:13.042Z,9
2023-05-06T18:27:36.449Z,9.3
2023-05-06T18:28:59.857Z,9.2
2023-05-06T18:30:23.256Z,9.1
2023-05-06T18:31:46.668Z,9
2023-05-06T18:33:10.070Z,8.6
2023-05-06T18:34:33.490Z,9.2
2023-05-06T18:35:56.892Z,8.6
2023-05-06T18:37:20.292Z,8.6
2023-05-06T18:38:43.704Z,8.1
2023-05-06T18:40:06.143Z,8.2
2023-05-06T18:41:29.534Z,8.3
2023-05-06T18:42:52.000Z,8.6
2023-05-06T18:44:16.353Z,8.4
2023-05-06T18:45:39.779Z,8.4
2023-05-06T18:47:03.179Z,7.9
2023-05-06T18:48:26.594Z,8.2
2023-05-06T18:49:50.001Z,8.3
2023-05-06T18:51:13.403Z,8.2
2023-05-06T18:52:36.807Z,8
2023-05-06T18:54:00.220Z,8.8
2023-05-06T18:55:23.627Z,7.5
2023-05-06T18:56:47.052Z,8.1
2023-05-06T18:58:09.459Z,8
2023-05-06T18:59:32.880Z,7.4
2023-05-06T19:00:56.269Z,7.7
2023-05-06T19:02:19.692Z,7.9
2023-05-06T19:03:43.094Z,7.4
2023-05-06T19:05:06.517Z,7.9
2023-05-06T19:06:29.912Z,7.4
2023-05-06T19:07:53.326Z,7.4
2023-05-06T19:09:16.733Z,7.9
2023-05-06T19:10:40.178Z,7.7
2023-05-06T19:12:03.627Z,7.9
2023-05-06T19:13:27.094Z,7.9
2023-05-06T19:14:50.530Z,8.2
2023-05-06T19:16:13.009Z,8.1
2023-05-06T19:17:36.458Z,8.5
2023-05-06T19:18:59.919Z,7.7
2023-05-06T19:20:23.367Z,7.9
2023-05-06T19:21:46.809Z,7.6
2023-05-06T19:23:10.270Z,8
2023-05-06T19:24:33.711Z,7.4
2023-05-06T19:25:57.165Z,7.5
2023-05-06T19:27:20.601Z,7.3
2023-05-06T19:28:44.036Z,8.1
2023-05-06T19:30:07.489Z,8.4
2023-05-06T19:31:30.935Z,7.4
2023-05-06T19:32:54.388Z,7.2
2023-05-06T19:34:16.850Z,7.4
2023-05-06T19:35:40.307Z,7.8
2023-05-06T19:37:03.761Z,7.8
2023-05-06T19:38:27.206Z,7.2
2023-05-06T19:39:50.652Z,6.9
2023-05-06T19:41:14.105Z,6.8
2023-05-06T19:42:37.553Z,7.1
2023-05-06T19:44:01.012Z,7.2
2023-05-06T19:45:24.454Z,7.5
2023-05-06T19:46:47.907Z,6.6
2023-05-06T19:48:11.354Z,7.2
2023-05-06T19:49:34.805Z,7.1
2023-05-06T19:50:58.250Z,7.1
2023-05-06T19:52:20.706Z,7.6
2023-05-06T19:53:44.157Z,7.6
2023-05-06T19:55:07.614Z,8.2
2023-05-06T19:56:31.068Z,8
2023-05-06T19:57:54.522Z,8.3
2023-05-06T19:59:17.960Z,8.9
2023-05-06T20:00:41.414Z,8.2
2023-05-06T20:02:04.854Z,8.8
2023-05-06T20:03:28.312Z,8.7
2023-05-06T20:04:51.769Z,8.7
2023-05-06T20:06:15.202Z,8.2
2023-05-06T20:07:38.653Z,8.2
2023-05-06T20:09:02.111Z,8.7
2023-05-06T20:10:24.582Z,8
2023-05-06T20:11:48.035Z,8.6
2023-05-06T20:13:11.474Z,8.5
2023-05-06T20:14:34.916Z,8.3
2023-05-06T20:15:58.383Z,8.4
2023-05-06T20:17:21.817Z,7.7
2023-05-06T20:18:44.301Z,7.7
2023-05-06T20:20:07.733Z,8.3
2023-05-06T20:21:31.204Z,7.6
2023-05-06T20:22:54.646Z,7.5
2023-05-06T20:24:18.088Z,7.9
2023-05-06T20:25:41.556Z,8.1
2023-05-06T20:27:04.992Z,7.6
2023-05-06T20:28:28.444Z,7.2
2023-05-06T20:29:51.907Z,6.7
2023-05-06T20:31:15.349Z,7.1
2023-05-06T20:32:38.796Z,6.9
2023-05-06T20:34:02.246Z,6.8
2023-05-06T20:35:25.689Z,7.7
2023-05-06T20:36:48.167Z,7
2023-05-06T20:38:11.605Z,7
2023-05-06T20:39:35.066Z,7.2
2023-05-06T20:40:58.503Z,6.7
2023-05-06T20:42:21.952Z,7
2023-05-06T20:43:45.408Z,6.8
2023-05-06T20:45:08.856Z,6.6
2023-05-06T20:46:32.313Z,6.6
2023-05-06T20:47:55.770Z,6.4
2023-05-06T20:49:19.217Z,6.1
2023-05-06T20:50:42.660Z,6.1
2023-05-06T20:52:06.106Z,6
2023-05-06T20:53:29.558Z,5.8
2023-05-06T20:54:52.029Z,6.2
2023-05-06T20:56:15.479Z,5.9
2023-05-06T20:57:38.914Z,5.8
2023-05-06T20:59:02.377Z,5.8
2023-05-06T21:00:25.817Z,5.7
2023-05-06T21:01:49.260Z,6
2023-05-06T21:03:12.719Z,5.4
2023-05-06T21:04:36.169Z,5.4
2023-05-06T21:05:59.620Z,5.7
2023-05-06T21:07:23.066Z,5.6
2023-05-06T21:08:46.516Z,5.5
2023-05-06T21:10:09.964Z,5
2023-05-06T21:11:33.403Z,5.3
2023-05-06T21:12:55.889Z,4.9
2023-05-06T21:14:19.328Z,5.1
2023-05-06T21:15:42.769Z,5.1
2023-05-06T21:17:06.233Z,5
2023-05-06T21:18:29.680Z,4.9
2023-05-06T21:19:53.129Z,4.7
2023-05-06T21:21:16.568Z,5.2
2023-05-06T21:22:40.020Z,4.9
2023-05-06T21:24:03.474Z,4.9
2023-05-06T21:25:26.929Z,5.5
2023-05-06T21:26:50.384Z,5.9
2023-05-06T21:28:13.816Z,5.8
2023-05-06T21:29:37.276Z,6
2023-05-06T21:30:59.729Z,6.1
2023-05-06T21:32:23.183Z,5.6
2023-05-06T21:33:46.639Z,5.2
2023-05-06T21:35:10.077Z,5.1
2023-05-06T21:36:33.540Z,5.7
2023-05-06T21:37:56.988Z,5.4
2023-05-06T21:39:20.430Z,5.5
2023-05-06T21:40:43.879Z,5.1
2023-05-06T21:42:07.335Z,5
2023-05-06T21:43:30.785Z,5.1
2023-05-06T21:44:54.235Z,4.5
2023-05-06T21:46:17.670Z,4.6
2023-05-06T21:47:41.125Z,3.9
2023-05-06T21:49:03.595Z,4.6
2023-05-06T21:50:27.048Z,4.5
2023-05-06T21:51:50.484Z,4.6
2023-05-06T21:53:13.943Z,4.2
2023-05-06T21:54:37.397Z,4.1
2023-05-06T21:56:00.834Z,4.2
2023-05-06T21:57:24.296Z,3.9
2023-05-06T21:58:47.732Z,3.9
2023-05-06T22:00:11.195Z,3.9
2023-05-06T22:01:34.630Z,3.8
2023-05-06T22:02:58.089Z,3.8
2023-05-06T22:04:21.529Z,3.7
2023-05-06T22:05:44.975Z,3.9
2023-05-06T22:07:07.456Z,3.7
2023-05-06T22:08:30.900Z,3.5
2023-05-06T22:09:54.362Z,4
2023-05-06T22:11:17.805Z,3.7
2023-05-06T22:12:41.249Z,4
2023-05-06T22:14:04.693Z,3.9
2023-05-06T22:15:28.152Z,3.8
2023-05-06T22:16:51.601Z,3.5
2023-05-06T22:18:15.043Z,4.2
2023-05-06T22:19:38.499Z,4
2023-05-06T22:21:01.951Z,4.4
2023-05-06T22:22:25.394Z,4.3
2023-05-06T22:23:48.848Z,4.2
2023-05-06T22:25:11.302Z,3.7
2023-05-06T22:26:34.767Z,4.1
2023-05-06T22:27:58.198Z,3.9
2023-05-06T22:29:21.647Z,4.1
2023-05-06T22:30:45.106Z,4.4
2023-05-06T22:32:08.547Z,4.1
2023-05-06T22:33:32.013Z,3.9
2023-05-06T22:34:55.461Z,4.1
2023-05-06T22:36:18.901Z,4.7
2023-05-06T22:37:42.355Z,4.1
2023-05-06T22:39:05.802Z,4.1
2023-05-06T22:40:29.255Z,4
2023-05-06T22:41:52.693Z,4.3
2023-05-06T22:43:15.177Z,4.4
2023-05-06T22:44:38.611Z,4.5
2023-05-06T22:46:02.067Z,4.3
2023-05-06T22:47:25.506Z,4.6
2023-05-06T22:48:48.969Z,4.3
2023-05-06T22:50:12.415Z,4.5
2023-05-06T22:51:35.869Z,4.3
2023-05-06T22:52:59.304Z,4.9
2023-05-06T23:08:22.613Z,4.9
2023-05-06T23:23:45.919Z,5.2
2023-05-06T23:39:09.218Z,4.5
2023-05-06T23:54:32.521Z,5
